createdAt,value
2019-01-31T00:03:01.171Z,51.80
2019-01-31T00:08:27.492Z,47.27
2019-01-31T00:13:39.945Z,46.87
2019-01-31T00:18:58.400Z,56.37
2019-01-31T00:24:09.704Z,47.73
2019-01-31T00:29:14.632Z,45.90
2019-01-31T00:34:22.539Z,45.27
2019-01-31T00:39:41.418Z,42.97
2019-01-31T00:45:05.392Z,49.83
2019-01-31T00:50:32.990Z,40.67
2019-01-31T00:55:33.281Z,44.93
2019-01-31T01:00:49.229Z,45.07
2019-01-31T01:06:09.279Z,48.93
2019-01-31T01:11:36.952Z,48.37
2019-01-31T01:16:36.655Z,48.23
2019-01-31T01:21:42.147Z,45.33
2019-01-31T01:26:47.653Z,46.50
2019-01-31T01:31:50.020Z,42.80
2019-01-31T01:37:01.942Z,50.20
2019-01-31T01:42:10.535Z,42.10
2019-01-31T01:47:16.114Z,41.17
2019-01-31T01:52:43.098Z,43.53
2019-01-31T01:58:00.807Z,43.93
2019-01-31T02:03:17.407Z,45.53
2019-01-31T02:08:26.399Z,44.73
2019-01-31T02:13:31.864Z,47.53
2019-01-31T02:18:40.092Z,36.20
2019-01-31T02:23:46.384Z,40.83
2019-01-31T02:29:16.437Z,37.73
2019-01-31T02:34:37.437Z,36.80
2019-01-31T02:40:02.908Z,37.67
2019-01-31T02:45:17.209Z,43.67
2019-01-31T02:50:19.955Z,38.67
2019-01-31T02:55:39.058Z,33.00
2019-01-31T03:01:05.865Z,36.03
2019-01-31T03:06:11.336Z,40.37
2019-01-31T03:11:17.156Z,38.67
2019-01-31T03:16:22.426Z,43.77
2019-01-31T03:21:34.318Z,37.07
2019-01-31T03:26:43.271Z,46.93
2019-01-31T03:32:01.148Z,41.13
2019-01-31T03:37:23.834Z,38.43
2019-01-31T03:42:55.615Z,40.27
2019-01-31T03:48:13.433Z,48.90
2019-01-31T03:53:18.936Z,47.77
2019-01-31T03:58:21.885Z,45.10
2019-01-31T04:03:33.703Z,33.90
2019-01-31T04:08:29.553Z,39.13
2019-01-31T04:13:25.438Z,32.97
2019-01-31T04:18:21.337Z,30.67
2019-01-31T04:23:17.213Z,37.07
2019-01-31T04:28:13.130Z,34.80
2019-01-31T04:33:09.030Z,34.33
2019-01-31T04:38:05.017Z,31.50
2019-01-31T04:43:00.900Z,36.03
2019-01-31T04:47:56.836Z,32.80
2019-01-31T04:52:52.698Z,39.10
2019-01-31T04:57:48.627Z,35.87
2019-01-31T05:02:44.607Z,57.83
2019-01-31T05:07:40.500Z,39.50
2019-01-31T05:12:36.509Z,41.67
2019-01-31T05:17:32.405Z,40.10
2019-01-31T05:22:28.321Z,38.40
2019-01-31T05:27:24.203Z,43.87
2019-01-31T05:32:20.085Z,37.70
2019-01-31T05:37:16.072Z,33.30
2019-01-31T05:42:11.956Z,35.20
2019-01-31T05:47:07.848Z,41.27
2019-01-31T05:52:03.758Z,36.53
2019-01-31T05:56:59.629Z,30.73
2019-01-31T06:01:55.519Z,35.40
2019-01-31T06:06:51.378Z,33.00
2019-01-31T06:11:47.286Z,29.40
2019-01-31T06:16:43.185Z,35.30
2019-01-31T06:21:39.062Z,32.40
2019-01-31T06:26:36.135Z,41.83
2019-01-31T06:31:32.091Z,30.17
2019-01-31T06:36:27.977Z,28.43
2019-01-31T06:41:23.899Z,39.43
2019-01-31T06:46:19.880Z,34.03
2019-01-31T06:51:15.768Z,22.87
2019-01-31T06:56:11.678Z,29.37
2019-01-31T07:01:07.667Z,32.40
2019-01-31T07:06:03.649Z,38.90
2019-01-31T07:10:59.559Z,24.00
2019-01-31T07:15:55.456Z,29.53
2019-01-31T07:20:51.346Z,21.47
2019-01-31T07:25:47.229Z,23.43
2019-01-31T07:30:43.213Z,29.60
2019-01-31T07:35:39.096Z,31.80
2019-01-31T07:40:34.989Z,21.90
2019-01-31T07:45:31.275Z,19.70
2019-01-31T07:50:27.267Z,25.13
2019-01-31T07:55:23.300Z,27.13
2019-01-31T08:00:21.301Z,31.73
2019-01-31T08:05:18.994Z,25.33
2019-01-31T08:10:20.823Z,29.43
2019-01-31T08:15:18.121Z,43.77
2019-01-31T08:20:18.565Z,23.27
2019-01-31T08:25:22.109Z,26.07
2019-01-31T08:30:42.522Z,24.67
2019-01-31T08:35:38.425Z,20.47
2019-01-31T08:40:34.315Z,28.53
2019-01-31T08:45:30.209Z,22.93
2019-01-31T08:50:27.961Z,28.77
2019-01-31T08:55:24.308Z,26.13
2019-01-31T09:00:28.685Z,23.33
2019-01-31T09:05:24.541Z,19.43
2019-01-31T09:10:29.023Z,20.70
2019-01-31T09:15:25.319Z,20.87
2019-01-31T09:20:25.019Z,22.63
2019-01-31T09:25:24.729Z,20.00
2019-01-31T09:30:53.122Z,15.43
2019-01-31T09:35:58.830Z,14.80
2019-01-31T09:41:04.397Z,16.40
2019-01-31T09:46:04.156Z,19.13
2019-01-31T09:51:17.417Z,19.37
2019-01-31T09:56:54.146Z,22.43
2019-01-31T10:02:28.780Z,19.10
2019-01-31T10:07:46.860Z,15.00
2019-01-31T10:13:09.848Z,14.00
2019-01-31T10:18:42.630Z,19.33
2019-01-31T10:23:56.815Z,11.00
2019-01-31T10:29:22.652Z,14.90
2019-01-31T10:34:37.369Z,15.30
2019-01-31T10:39:39.935Z,18.13
2019-01-31T10:45:13.550Z,15.07
2019-01-31T10:50:30.870Z,14.03
2019-01-31T10:55:53.488Z,16.03
2019-01-31T11:01:05.213Z,14.63
2019-01-31T11:06:20.104Z,18.63
2019-01-31T11:11:41.004Z,14.60
2019-01-31T11:17:04.740Z,12.83
2019-01-31T11:22:07.252Z,16.57
2019-01-31T11:27:10.216Z,13.50
2019-01-31T11:32:31.444Z,12.03
2019-01-31T11:37:31.151Z,11.00
2019-01-31T11:42:39.964Z,12.10
2019-01-31T11:47:51.708Z,7.10
2019-01-31T11:53:06.154Z,17.37
2019-01-31T11:58:41.872Z,7.73
2019-01-31T12:03:37.769Z,9.13
2019-01-31T12:08:33.834Z,10.67
2019-01-31T12:13:29.805Z,9.50
2019-01-31T12:18:25.831Z,9.90
2019-01-31T12:23:22.764Z,6.57
2019-01-31T12:28:25.519Z,6.80
2019-01-31T12:33:24.007Z,6.87
2019-01-31T12:38:23.943Z,11.33
2019-01-31T12:43:35.044Z,4.67
2019-01-31T12:48:27.144Z,5.10
2019-01-31T12:53:25.981Z,7.17
2019-01-31T12:58:33.797Z,9.23
2019-01-31T13:03:32.054Z,8.60
2019-01-31T13:08:36.228Z,4.43
2019-01-31T13:13:45.957Z,5.10
2019-01-31T13:18:35.412Z,4.47
2019-01-31T13:23:34.556Z,5.00
2019-01-31T13:28:35.843Z,6.57
2019-01-31T13:33:34.364Z,6.40
2019-01-31T13:38:34.902Z,6.90
2019-01-31T13:43:36.211Z,6.30
2019-01-31T13:48:38.745Z,10.50
2019-01-31T13:53:36.340Z,7.50
2019-01-31T13:58:34.582Z,7.73
2019-01-31T14:03:36.350Z,6.67
2019-01-31T14:08:34.230Z,11.33
2019-01-31T14:13:32.579Z,9.40
2019-01-31T14:18:30.373Z,6.43
2019-01-31T14:28:50.652Z,10.00
2019-01-31T14:33:47.778Z,6.27
2019-01-31T14:38:45.466Z,4.80
2019-01-31T14:49:02.541Z,8.43
2019-01-31T14:54:02.909Z,4.83
2019-01-31T14:59:02.292Z,6.30
2019-01-31T15:04:02.199Z,6.77
2019-01-31T15:08:59.924Z,7.83
2019-01-31T15:13:59.172Z,5.30
2019-01-31T15:18:58.352Z,6.57
2019-01-31T15:23:59.663Z,3.20
2019-01-31T15:29:05.804Z,5.70
2019-01-31T15:34:09.274Z,4.20
2019-01-31T15:39:08.076Z,3.27
2019-01-31T15:44:10.784Z,11.97
2019-01-31T15:49:14.411Z,9.87
2019-01-31T15:54:14.953Z,5.27
2019-01-31T15:59:11.759Z,3.50
2019-01-31T16:04:13.131Z,4.87
2019-01-31T16:09:09.895Z,5.10
2019-01-31T16:14:09.419Z,6.77
2019-01-31T16:19:11.909Z,4.43
2019-01-31T16:24:11.351Z,5.37
2019-01-31T16:29:13.615Z,3.97
2019-01-31T16:34:11.916Z,3.40
2019-01-31T16:39:15.075Z,5.13
2019-01-31T16:44:18.408Z,6.40
2019-01-31T16:49:15.821Z,4.10
2019-01-31T16:54:13.158Z,4.40
2019-01-31T16:59:09.179Z,7.63
2019-01-31T17:04:05.259Z,9.53
2019-01-31T17:09:10.244Z,7.03
2019-01-31T17:14:11.190Z,7.50
2019-01-31T17:19:13.311Z,8.07
2019-01-31T17:24:11.433Z,9.40
2019-01-31T17:29:07.998Z,5.50
2019-01-31T17:34:03.932Z,4.73
2019-01-31T17:39:00.746Z,8.87
2019-01-31T17:43:57.797Z,4.67
2019-01-31T17:48:56.174Z,5.17
2019-01-31T17:53:54.342Z,7.23
2019-01-31T17:58:50.332Z,7.27
2019-01-31T18:03:46.279Z,7.00
2019-01-31T18:08:42.228Z,6.20
2019-01-31T18:13:38.248Z,5.63
2019-01-31T18:18:34.140Z,6.40
2019-01-31T18:23:31.863Z,8.20
2019-01-31T18:28:27.881Z,7.83
2019-01-31T18:33:23.778Z,8.07
2019-01-31T18:38:19.739Z,10.50
2019-01-31T18:43:15.848Z,7.67
2019-01-31T18:48:11.740Z,6.77
2019-01-31T18:53:07.829Z,13.73
2019-01-31T18:58:04.804Z,8.73
2019-01-31T19:03:00.800Z,12.17
2019-01-31T19:07:56.899Z,7.30
2019-01-31T19:12:52.924Z,6.83
2019-01-31T19:17:48.985Z,12.67
2019-01-31T19:22:45.140Z,5.30
2019-01-31T19:27:43.066Z,5.63
2019-01-31T19:32:39.349Z,5.53
2019-01-31T19:37:40.422Z,5.97
2019-01-31T19:42:38.274Z,7.03
2019-01-31T19:47:35.225Z,4.70
2019-01-31T19:52:31.490Z,5.90
2019-01-31T19:57:27.826Z,4.73
2019-01-31T20:02:24.011Z,6.40
2019-01-31T20:07:19.885Z,7.07
2019-01-31T20:12:15.906Z,10.10
2019-01-31T20:17:11.808Z,5.73
2019-01-31T20:22:07.954Z,6.07
2019-01-31T20:27:03.948Z,8.40
2019-01-31T20:32:00.519Z,9.77
2019-01-31T20:36:56.418Z,6.70
2019-01-31T20:41:54.296Z,7.43
2019-01-31T20:46:50.073Z,8.63
2019-01-31T20:51:45.977Z,8.60
2019-01-31T20:56:41.978Z,10.13
2019-01-31T21:01:38.661Z,13.30
2019-01-31T21:06:41.414Z,13.57
2019-01-31T21:11:32.577Z,7.53
2019-01-31T21:16:28.605Z,9.53
2019-01-31T21:21:24.464Z,7.40
2019-01-31T21:26:20.480Z,6.73
2019-01-31T21:31:16.376Z,10.23
2019-01-31T21:36:12.262Z,9.47
2019-01-31T21:41:08.201Z,10.07
2019-01-31T21:46:04.330Z,7.10
2019-01-31T21:51:04.087Z,8.67
2019-01-31T21:56:02.144Z,8.27
2019-01-31T22:01:14.969Z,14.20
2019-01-31T22:06:22.608Z,5.50
2019-01-31T22:11:24.530Z,5.90
2019-01-31T22:16:25.638Z,5.10
2019-01-31T22:21:29.199Z,5.23
2019-01-31T22:26:32.080Z,8.47
2019-01-31T22:31:33.604Z,6.87
2019-01-31T22:36:35.604Z,8.60
2019-01-31T22:41:56.770Z,15.10
2019-01-31T22:46:59.236Z,4.67
2019-01-31T22:51:55.221Z,9.00
2019-01-31T22:56:51.115Z,5.50
2019-01-31T23:01:51.257Z,6.13
2019-01-31T23:06:47.247Z,6.03
2019-01-31T23:11:43.261Z,4.73
2019-01-31T23:16:39.766Z,4.33
2019-01-31T23:21:35.747Z,3.60
2019-01-31T23:26:31.743Z,6.13
2019-01-31T23:31:27.625Z,5.17
2019-01-31T23:36:23.612Z,4.97
2019-01-31T23:41:19.600Z,6.40
2019-01-31T23:46:15.587Z,3.07
2019-01-31T23:51:11.481Z,3.57
2019-01-31T23:56:07.368Z,2.27
